Ridgecrest, CA

8:22 AM PST on December 22, 2014 (GMT -0800)
City Hall | Change Station
CLOSE
Current Station
Personal Weather Station
Location: Ridgecrest, CA
Elevation: 2315 ft
Nearby Weather Stations

Elev 2315 ft 35.62 °N, 117.67 °W | Updated 8 seconds ago

Mostly Cloudy
Mostly Cloudy
41.0 °F
Feels Like 38 °F
N
4.0
Wind Variable Wind from ENE
Gusts 5.0 mph

Today
High -- | Low -- °F
--% Chance of Precip.
Yesterday
High -- | Low -- °F
Precip. -- in
6:57 AM 4:41 PM
New Moon, 1% visible
Pressure 30.17 in
Visibility 1.8 miles
Clouds Scattered Clouds 100 ft
Windchill 38 °F
Dew Point 36 °F
Humidity 81%
Rainfall 0.00 in
Snow Depth Not available.
UV 1 out of 12
Pollen 4.30 out of 12
Air Quality Not available.
Flu Activity Not available.
SPECI K9L2 221615Z AUTO 00000KT 1 3/4SM BR SCT001 04/03 A3017 RMK AO2 TSNO $

More Conditions Fewer Conditions

Pressure 30.17 in
Visibility 1.8 miles
Clouds Scattered Clouds 100 ft
Windchill 38 °F
Dew Point 36 °F
Humidity 81%
Rainfall 0.00 in
Snow Depth Not available.
UV 1 out of 12
Pollen 4.30 out of 12
Air Quality Not available.
Flu Activity Not available.
SPECI K9L2 221615Z AUTO 00000KT 1 3/4SM BR SCT001 04/03 A3017 RMK AO2 TSNO $

More Conditions Fewer Conditions

10-Day Weather Forecast

Almanac

Astronomy

Dec. 22, 2014 Rise Set
Actual Time
Civil Twilight
Nautical Twilight
Astronomical Twilight
Moon
Length of Visible Light
Length of Day
Tomorrow will be .
, % of the Moon is Illuminated

Today's Extremes

State Highs State Lows

Community

WunderPhotos

Upload Photos

1,779,632 photos uploaded!

WunderBlogs® & News

Nearby

Air Quality

  Air Quality AQ Index Pollutant
Not available.

Snow Depth

Station Depth Elevation

Earthquake Activity

City Distance Mag. Time & Date
Minimum magnitude displayed is 2.5.

Coastal Water Temperatures

Place Temperature

Nearby Weather Stations